sensor_id;sensor_type;location;lat;lon;timestamp;pressure;altitude;pressure_sealevel;temperature;humidity
21588;BME280;10956;48.878;13.316;2023-04-07T00:01:42;94223.63;;;-1.00;76.93
21588;BME280;10956;48.878;13.316;2023-04-07T00:04:07;94224.06;;;-0.89;75.52
21588;BME280;10956;48.878;13.316;2023-04-07T00:06:32;94219.09;;;-0.84;74.82
21588;BME280;10956;48.878;13.316;2023-04-07T00:08:58;94219.50;;;-0.87;74.90
21588;BME280;10956;48.878;13.316;2023-04-07T00:11:23;94220.88;;;-0.91;75.30
21588;BME280;10956;48.878;13.316;2023-04-07T00:13:49;94222.06;;;-0.87;75.00
21588;BME280;10956;48.878;13.316;2023-04-07T00:16:14;94213.94;;;-0.84;74.53
21588;BME280;10956;48.878;13.316;2023-04-07T00:18:39;94211.31;;;-0.91;75.45
21588;BME280;10956;48.878;13.316;2023-04-07T00:21:05;94211.31;;;-0.98;76.18
21588;BME280;10956;48.878;13.316;2023-04-07T00:23:30;94209.13;;;-0.87;75.23
21588;BME280;10956;48.878;13.316;2023-04-07T00:25:56;94203.75;;;-0.92;75.90
21588;BME280;10956;48.878;13.316;2023-04-07T00:28:21;94206.94;;;-0.90;75.65
21588;BME280;10956;48.878;13.316;2023-04-07T00:30:47;94201.56;;;-0.95;75.93
21588;BME280;10956;48.878;13.316;2023-04-07T00:33:12;94202.34;;;-1.02;76.48
21588;BME280;10956;48.878;13.316;2023-04-07T00:35:37;94207.91;;;-1.05;76.87
21588;BME280;10956;48.878;13.316;2023-04-07T00:38:03;94199.72;;;-1.08;77.23
21588;BME280;10956;48.878;13.316;2023-04-07T00:40:28;94198.53;;;-1.06;77.31
21588;BME280;10956;48.878;13.316;2023-04-07T00:42:54;94201.50;;;-1.09;77.22
21588;BME280;10956;48.878;13.316;2023-04-07T00:45:19;94198.31;;;-1.11;77.45
21588;BME280;10956;48.878;13.316;2023-04-07T00:47:44;94201.72;;;-1.10;77.23
21588;BME280;10956;48.878;13.316;2023-04-07T00:50:10;94199.69;;;-1.15;77.64
21588;BME280;10956;48.878;13.316;2023-04-07T00:52:36;94193.72;;;-1.22;78.39
21588;BME280;10956;48.878;13.316;2023-04-07T00:55:01;94191.13;;;-1.22;78.10
21588;BME280;10956;48.878;13.316;2023-04-07T00:57:27;94183.75;;;-1.25;78.37
21588;BME280;10956;48.878;13.316;2023-04-07T00:59:53;94186.31;;;-1.32;79.31
21588;BME280;10956;48.878;13.316;2023-04-07T01:02:37;94181.34;;;-1.33;79.38
21588;BME280;10956;48.878;13.316;2023-04-07T01:05:24;94175.75;;;-1.37;79.52
21588;BME280;10956;48.878;13.316;2023-04-07T01:08:19;94185.69;;;-1.40;80.10
21588;BME280;10956;48.878;13.316;2023-04-07T01:13:47;94175.34;;;-1.40;79.69
21588;BME280;10956;48.878;13.316;2023-04-07T01:16:21;94176.34;;;-1.41;79.83
21588;BME280;10956;48.878;13.316;2023-04-07T01:18:50;94172.16;;;-1.42;80.17
21588;BME280;10956;48.878;13.316;2023-04-07T01:21:17;94177.31;;;-1.42;79.80
21588;BME280;10956;48.878;13.316;2023-04-07T01:24:11;94169.16;;;-1.46;80.20
21588;BME280;10956;48.878;13.316;2023-04-07T01:26:43;94173.72;;;-1.48;80.31
21588;BME280;10956;48.878;13.316;2023-04-07T01:29:36;94171.78;;;-1.39;79.44
21588;BME280;10956;48.878;13.316;2023-04-07T01:32:04;94173.38;;;-1.38;79.19
21588;BME280;10956;48.878;13.316;2023-04-07T01:34:51;94168.34;;;-1.46;79.77
21588;BME280;10956;48.878;13.316;2023-04-07T01:37:17;94161.41;;;-1.46;79.22
21588;BME280;10956;48.878;13.316;2023-04-07T01:39:44;94170.16;;;-1.47;79.55
21588;BME280;10956;48.878;13.316;2023-04-07T01:42:10;94167.38;;;-1.45;79.56
21588;BME280;10956;48.878;13.316;2023-04-07T01:44:37;94158.63;;;-1.44;79.61
21588;BME280;10956;48.878;13.316;2023-04-07T01:47:03;94162.63;;;-1.35;78.76
21588;BME280;10956;48.878;13.316;2023-04-07T01:49:30;94167.03;;;-1.29;78.44
21588;BME280;10956;48.878;13.316;2023-04-07T01:51:56;94157.69;;;-1.30;78.42
21588;BME280;10956;48.878;13.316;2023-04-07T01:54:22;94161.66;;;-1.34;78.95
21588;BME280;10956;48.878;13.316;2023-04-07T01:56:48;94154.50;;;-1.32;78.61
21588;BME280;10956;48.878;13.316;2023-04-07T01:59:13;94158.31;;;-1.21;78.29
21588;BME280;10956;48.878;13.316;2023-04-07T02:01:39;94159.09;;;-1.21;78.43
21588;BME280;10956;48.878;13.316;2023-04-07T02:06:50;94147.50;;;-1.38;79.38
21588;BME280;10956;48.878;13.316;2023-04-07T02:09:19;94147.06;;;-1.55;80.95
21588;BME280;10956;48.878;13.316;2023-04-07T02:11:45;94149.44;;;-1.53;80.65
21588;BME280;10956;48.878;13.316;2023-04-07T02:14:12;94153.78;;;-1.60;81.14
21588;BME280;10956;48.878;13.316;2023-04-07T02:16:39;94149.84;;;-1.50;80.35
21588;BME280;10956;48.878;13.316;2023-04-07T02:19:05;94147.28;;;-1.43;79.56
21588;BME280;10956;48.878;13.316;2023-04-07T02:21:33;94151.06;;;-1.46;79.91
21588;BME280;10956;48.878;13.316;2023-04-07T02:24:05;94147.84;;;-1.54;80.32
21588;BME280;10956;48.878;13.316;2023-04-07T02:26:34;94149.81;;;-1.56;80.61
21588;BME280;10956;48.878;13.316;2023-04-07T02:29:01;94150.63;;;-1.56;80.88
21588;BME280;10956;48.878;13.316;2023-04-07T02:31:26;94143.06;;;-1.57;80.63
21588;BME280;10956;48.878;13.316;2023-04-07T02:33:51;94141.09;;;-1.55;80.79
21588;BME280;10956;48.878;13.316;2023-04-07T02:36:17;94147.25;;;-1.56;81.02
21588;BME280;10956;48.878;13.316;2023-04-07T02:38:42;94145.44;;;-1.63;81.85
21588;BME280;10956;48.878;13.316;2023-04-07T02:41:08;94141.41;;;-1.72;82.59
21588;BME280;10956;48.878;13.316;2023-04-07T02:43:33;94144.97;;;-1.73;82.02
21588;BME280;10956;48.878;13.316;2023-04-07T02:45:58;94132.66;;;-1.71;81.71
21588;BME280;10956;48.878;13.316;2023-04-07T02:48:24;94140.03;;;-1.68;81.02
21588;BME280;10956;48.878;13.316;2023-04-07T02:50:49;94139.50;;;-1.56;80.68
21588;BME280;10956;48.878;13.316;2023-04-07T02:53:15;94143.88;;;-1.50;80.75
21588;BME280;10956;48.878;13.316;2023-04-07T02:55:40;94136.13;;;-1.50;80.72
21588;BME280;10956;48.878;13.316;2023-04-07T02:58:06;94133.38;;;-1.42;80.57
21588;BME280;10956;48.878;13.316;2023-04-07T03:00:32;94130.00;;;-1.43;80.18
21588;BME280;10956;48.878;13.316;2023-04-07T03:02:58;94139.97;;;-1.33;80.05
21588;BME280;10956;48.878;13.316;2023-04-07T03:05:23;94128.44;;;-1.31;79.90
21588;BME280;10956;48.878;13.316;2023-04-07T03:07:49;94129.63;;;-1.40;79.76
21588;BME280;10956;48.878;13.316;2023-04-07T03:10:14;94129.00;;;-1.48;80.34
21588;BME280;10956;48.878;13.316;2023-04-07T03:12:40;94126.38;;;-1.55;80.84
21588;BME280;10956;48.878;13.316;2023-04-07T03:15:05;94128.34;;;-1.64;81.17
21588;BME280;10956;48.878;13.316;2023-04-07T03:17:32;94128.72;;;-1.67;81.24
21588;BME280;10956;48.878;13.316;2023-04-07T03:19:57;94121.19;;;-1.61;80.65
21588;BME280;10956;48.878;13.316;2023-04-07T03:22:23;94125.91;;;-1.72;81.05
21588;BME280;10956;48.878;13.316;2023-04-07T03:24:48;94121.47;;;-1.84;82.07
21588;BME280;10956;48.878;13.316;2023-04-07T03:27:13;94130.13;;;-1.99;84.16
21588;BME280;10956;48.878;13.316;2023-04-07T03:29:41;94120.59;;;-1.98;84.01
21588;BME280;10956;48.878;13.316;2023-04-07T03:32:06;94123.84;;;-1.89;82.57
21588;BME280;10956;48.878;13.316;2023-04-07T03:34:32;94123.59;;;-1.94;83.13
21588;BME280;10956;48.878;13.316;2023-04-07T03:36:57;94116.44;;;-1.99;83.25
21588;BME280;10956;48.878;13.316;2023-04-07T03:39:23;94121.00;;;-2.01;84.01
21588;BME280;10956;48.878;13.316;2023-04-07T03:41:48;94116.25;;;-1.98;83.87
21588;BME280;10956;48.878;13.316;2023-04-07T03:44:13;94119.09;;;-1.86;82.45
21588;BME280;10956;48.878;13.316;2023-04-07T03:46:39;94111.50;;;-1.94;83.62
21588;BME280;10956;48.878;13.316;2023-04-07T03:49:05;94110.28;;;-1.98;84.16
21588;BME280;10956;48.878;13.316;2023-04-07T03:51:31;94112.63;;;-2.03;84.56
21588;BME280;10956;48.878;13.316;2023-04-07T03:53:58;94119.47;;;-1.89;83.25
21588;BME280;10956;48.878;13.316;2023-04-07T03:56:24;94110.72;;;-1.88;82.37
21588;BME280;10956;48.878;13.316;2023-04-07T03:58:49;94113.06;;;-2.00;83.19
21588;BME280;10956;48.878;13.316;2023-04-07T04:01:15;94111.88;;;-1.97;83.06
21588;BME280;10956;48.878;13.316;2023-04-07T04:03:41;94114.84;;;-2.00;83.53
21588;BME280;10956;48.878;13.316;2023-04-07T04:06:06;94109.09;;;-1.96;83.45
21588;BME280;10956;48.878;13.316;2023-04-07T04:08:32;94112.09;;;-1.92;82.65
21588;BME280;10956;48.878;13.316;2023-04-07T04:10:57;94110.31;;;-1.91;82.83
21588;BME280;10956;48.878;13.316;2023-04-07T04:13:22;94108.34;;;-1.89;83.03
21588;BME280;10956;48.878;13.316;2023-04-07T04:15:48;94102.38;;;-1.90;83.75
21588;BME280;10956;48.878;13.316;2023-04-07T04:18:13;94111.53;;;-1.87;83.65
21588;BME280;10956;48.878;13.316;2023-04-07T04:20:38;94107.00;;;-1.79;82.95
21588;BME280;10956;48.878;13.316;2023-04-07T04:23:04;94109.19;;;-1.76;82.85
21588;BME280;10956;48.878;13.316;2023-04-07T04:25:29;94110.78;;;-1.75;83.11
21588;BME280;10956;48.878;13.316;2023-04-07T04:27:55;94098.88;;;-1.76;83.35
21588;BME280;10956;48.878;13.316;2023-04-07T04:30:20;94103.25;;;-1.70;82.84
21588;BME280;10956;48.878;13.316;2023-04-07T04:32:46;94100.06;;;-1.72;82.77
21588;BME280;10956;48.878;13.316;2023-04-07T04:35:11;94099.91;;;-1.64;82.76
21588;BME280;10956;48.878;13.316;2023-04-07T04:37:37;94103.47;;;-1.65;82.41
21588;BME280;10956;48.878;13.316;2023-04-07T04:40:02;94098.91;;;-1.63;82.30
21588;BME280;10956;48.878;13.316;2023-04-07T04:42:28;94098.47;;;-1.73;82.98
21588;BME280;10956;48.878;13.316;2023-04-07T04:44:55;94096.06;;;-1.81;83.89
21588;BME280;10956;48.878;13.316;2023-04-07T04:47:21;94101.59;;;-1.84;84.39
21588;BME280;10956;48.878;13.316;2023-04-07T04:49:46;94095.22;;;-1.88;84.35
21588;BME280;10956;48.878;13.316;2023-04-07T04:52:12;94090.44;;;-1.91;85.05
21588;BME280;10956;48.878;13.316;2023-04-07T04:54:37;94096.22;;;-1.89;84.71
21588;BME280;10956;48.878;13.316;2023-04-07T04:57:02;94093.25;;;-1.86;84.66
21588;BME280;10956;48.878;13.316;2023-04-07T04:59:28;94092.50;;;-1.80;84.35
21588;BME280;10956;48.878;13.316;2023-04-07T05:01:53;94089.91;;;-1.80;84.30
21588;BME280;10956;48.878;13.316;2023-04-07T05:04:18;94090.91;;;-1.81;84.56
21588;BME280;10956;48.878;13.316;2023-04-07T05:06:44;94088.88;;;-1.85;85.03
21588;BME280;10956;48.878;13.316;2023-04-07T05:09:09;94082.16;;;-1.80;84.33
21588;BME280;10956;48.878;13.316;2023-04-07T05:11:35;94087.75;;;-1.70;83.66
21588;BME280;10956;48.878;13.316;2023-04-07T05:14:00;94082.59;;;-1.70;83.91
21588;BME280;10956;48.878;13.316;2023-04-07T05:16:26;94091.75;;;-1.67;84.21
21588;BME280;10956;48.878;13.316;2023-04-07T05:18:51;94086.00;;;-1.63;84.45
21588;BME280;10956;48.878;13.316;2023-04-07T05:21:17;94082.63;;;-1.56;83.53
21588;BME280;10956;48.878;13.316;2023-04-07T05:23:44;94079.88;;;-1.48;83.78
21588;BME280;10956;48.878;13.316;2023-04-07T05:26:10;94068.38;;;-1.39;83.30
21588;BME280;10956;48.878;13.316;2023-04-07T05:28:35;94071.59;;;-1.24;82.79
21588;BME280;10956;48.878;13.316;2023-04-07T05:31:01;94072.00;;;-1.20;82.64
21588;BME280;10956;48.878;13.316;2023-04-07T05:33:26;94070.78;;;-1.24;83.10
21588;BME280;10956;48.878;13.316;2023-04-07T05:35:52;94075.97;;;-1.18;82.87
21588;BME280;10956;48.878;13.316;2023-04-07T05:38:17;94072.41;;;-1.10;82.23
21588;BME280;10956;48.878;13.316;2023-04-07T05:40:43;94070.41;;;-1.08;82.83
21588;BME280;10956;48.878;13.316;2023-04-07T05:43:08;94079.78;;;-0.94;82.09
21588;BME280;10956;48.878;13.316;2023-04-07T05:45:34;94072.44;;;-0.84;81.56
21588;BME280;10956;48.878;13.316;2023-04-07T05:47:59;94075.22;;;-0.72;81.06
21588;BME280;10956;48.878;13.316;2023-04-07T05:50:25;94072.03;;;-0.61;80.40
21588;BME280;10956;48.878;13.316;2023-04-07T05:52:50;94071.63;;;-0.51;79.81
21588;BME280;10956;48.878;13.316;2023-04-07T05:55:15;94081.56;;;-0.35;79.39
21588;BME280;10956;48.878;13.316;2023-04-07T05:57:41;94074.59;;;-0.28;78.85
21588;BME280;10956;48.878;13.316;2023-04-07T06:00:07;94078.38;;;-0.30;79.41
21588;BME280;10956;48.878;13.316;2023-04-07T06:02:33;94083.16;;;-0.27;79.26
21588;BME280;10956;48.878;13.316;2023-04-07T06:04:59;94070.22;;;-0.27;79.88
21588;BME280;10956;48.878;13.316;2023-04-07T06:07:25;94075.56;;;-0.16;79.37
21588;BME280;10956;48.878;13.316;2023-04-07T06:09:50;94071.16;;;-0.02;78.73
21588;BME280;10956;48.878;13.316;2023-04-07T06:12:15;94070.31;;;0.11;77.96
21588;BME280;10956;48.878;13.316;2023-04-07T06:14:41;94079.25;;;0.21;77.64
21588;BME280;10956;48.878;13.316;2023-04-07T06:17:07;94073.44;;;0.32;77.28
21588;BME280;10956;48.878;13.316;2023-04-07T06:19:32;94077.38;;;0.42;76.93
21588;BME280;10956;48.878;13.316;2023-04-07T06:21:57;94076.13;;;0.51;75.99
21588;BME280;10956;48.878;13.316;2023-04-07T06:24:23;94083.28;;;0.62;75.44
21588;BME280;10956;48.878;13.316;2023-04-07T06:26:50;94069.06;;;0.71;74.89
21588;BME280;10956;48.878;13.316;2023-04-07T06:29:16;94075.59;;;0.80;74.53
21588;BME280;10956;48.878;13.316;2023-04-07T06:31:41;94074.75;;;0.86;74.10
21588;BME280;10956;48.878;13.316;2023-04-07T06:34:07;94079.13;;;0.92;73.46
21588;BME280;10956;48.878;13.316;2023-04-07T06:36:32;94081.47;;;1.01;73.16
21588;BME280;10956;48.878;13.316;2023-04-07T06:38:59;94082.78;;;1.10;72.88
21588;BME280;10956;48.878;13.316;2023-04-07T06:41:24;94083.34;;;1.18;72.43
21588;BME280;10956;48.878;13.316;2023-04-07T06:43:49;94076.50;;;1.24;72.18
21588;BME280;10956;48.878;13.316;2023-04-07T06:46:18;94077.84;;;1.33;72.00
21588;BME280;10956;48.878;13.316;2023-04-07T06:48:44;94070.94;;;1.45;71.73
21588;BME280;10956;48.878;13.316;2023-04-07T06:51:09;94077.63;;;1.59;72.43
21588;BME280;10956;48.878;13.316;2023-04-07T06:53:35;94074.59;;;1.63;73.73
21588;BME280;10956;48.878;13.316;2023-04-07T06:56:07;94075.34;;;1.70;73.82
21588;BME280;10956;48.878;13.316;2023-04-07T06:58:34;94068.78;;;1.85;73.89
21588;BME280;10956;48.878;13.316;2023-04-07T07:01:00;94073.06;;;1.98;73.71
21588;BME280;10956;48.878;13.316;2023-04-07T07:03:26;94065.72;;;2.13;73.76
21588;BME280;10956;48.878;13.316;2023-04-07T07:05:54;94067.09;;;2.16;74.56
21588;BME280;10956;48.878;13.316;2023-04-07T07:08:21;94069.47;;;2.36;73.92
21588;BME280;10956;48.878;13.316;2023-04-07T07:10:46;94061.81;;;2.71;75.37
21588;BME280;10956;48.878;13.316;2023-04-07T07:13:12;94060.53;;;2.91;74.19
21588;BME280;10956;48.878;13.316;2023-04-07T07:15:37;94064.75;;;2.92;73.35
21588;BME280;10956;48.878;13.316;2023-04-07T07:18:02;94069.63;;;3.01;70.27
21588;BME280;10956;48.878;13.316;2023-04-07T07:20:28;94070.09;;;3.09;68.83
21588;BME280;10956;48.878;13.316;2023-04-07T07:22:53;94069.00;;;3.17;67.72
21588;BME280;10956;48.878;13.316;2023-04-07T07:25:19;94063.03;;;3.28;66.39
21588;BME280;10956;48.878;13.316;2023-04-07T07:27:44;94069.72;;;3.36;67.46
21588;BME280;10956;48.878;13.316;2023-04-07T07:30:10;94074.81;;;3.42;68.97
21588;BME280;10956;48.878;13.316;2023-04-07T07:32:35;94067.25;;;3.52;70.31
21588;BME280;10956;48.878;13.316;2023-04-07T07:35:01;94070.09;;;3.63;68.39
21588;BME280;10956;48.878;13.316;2023-04-07T07:37:26;94079.16;;;3.72;66.49
21588;BME280;10956;48.878;13.316;2023-04-07T07:39:52;94070.56;;;3.83;65.15
21588;BME280;10956;48.878;13.316;2023-04-07T07:42:18;94073.97;;;3.95;62.56
21588;BME280;10956;48.878;13.316;2023-04-07T07:44:43;94069.41;;;4.02;60.65
21588;BME280;10956;48.878;13.316;2023-04-07T07:47:09;94072.25;;;4.12;61.85
21588;BME280;10956;48.878;13.316;2023-04-07T07:49:34;94070.19;;;4.14;65.25
21588;BME280;10956;48.878;13.316;2023-04-07T07:52:00;94067.00;;;4.24;66.65
21588;BME280;10956;48.878;13.316;2023-04-07T07:54:26;94068.47;;;4.32;67.90
21588;BME280;10956;48.878;13.316;2023-04-07T07:56:52;94072.31;;;4.41;68.36
21588;BME280;10956;48.878;13.316;2023-04-07T07:59:17;94072.97;;;4.48;67.25
21588;BME280;10956;48.878;13.316;2023-04-07T08:01:42;94067.06;;;4.52;66.33
21588;BME280;10956;48.878;13.316;2023-04-07T08:04:08;94062.28;;;4.61;63.81
21588;BME280;10956;48.878;13.316;2023-04-07T08:06:33;94062.00;;;4.74;62.72
21588;BME280;10956;48.878;13.316;2023-04-07T08:08:59;94064.25;;;4.82;61.68
21588;BME280;10956;48.878;13.316;2023-04-07T08:11:24;94065.38;;;4.86;60.25
21588;BME280;10956;48.878;13.316;2023-04-07T08:13:50;94064.91;;;4.90;60.51
21588;BME280;10956;48.878;13.316;2023-04-07T08:16:15;94063.72;;;4.97;59.74
21588;BME280;10956;48.878;13.316;2023-04-07T08:18:41;94070.97;;;5.07;61.51
21588;BME280;10956;48.878;13.316;2023-04-07T08:21:06;94073.50;;;5.18;62.61
21588;BME280;10956;48.878;13.316;2023-04-07T08:23:32;94069.25;;;5.29;62.44
21588;BME280;10956;48.878;13.316;2023-04-07T08:25:57;94063.56;;;5.32;61.74
21588;BME280;10956;48.878;13.316;2023-04-07T08:28:24;94065.22;;;5.38;62.11
21588;BME280;10956;48.878;13.316;2023-04-07T08:30:50;94064.84;;;5.46;63.12
21588;BME280;10956;48.878;13.316;2023-04-07T08:33:15;94067.84;;;5.55;62.44
21588;BME280;10956;48.878;13.316;2023-04-07T08:35:41;94066.13;;;5.61;60.60
21588;BME280;10956;48.878;13.316;2023-04-07T08:38:06;94067.78;;;5.67;59.83
21588;BME280;10956;48.878;13.316;2023-04-07T08:40:33;94063.72;;;5.76;59.91
21588;BME280;10956;48.878;13.316;2023-04-07T08:43:00;94061.19;;;5.81;58.97
21588;BME280;10956;48.878;13.316;2023-04-07T08:45:29;94060.72;;;5.84;60.28
21588;BME280;10956;48.878;13.316;2023-04-07T08:47:57;94060.91;;;5.94;59.63
21588;BME280;10956;48.878;13.316;2023-04-07T08:50:25;94062.78;;;5.99;59.23
21588;BME280;10956;48.878;13.316;2023-04-07T08:52:54;94060.56;;;6.07;59.29
21588;BME280;10956;48.878;13.316;2023-04-07T08:55:21;94060.75;;;6.23;59.83
21588;BME280;10956;48.878;13.316;2023-04-07T08:57:47;94062.41;;;6.29;59.78
21588;BME280;10956;48.878;13.316;2023-04-07T09:00:13;94055.34;;;6.29;58.68
21588;BME280;10956;48.878;13.316;2023-04-07T09:02:41;94057.72;;;6.31;59.90
21588;BME280;10956;48.878;13.316;2023-04-07T09:05:12;94051.59;;;6.42;58.04
21588;BME280;10956;48.878;13.316;2023-04-07T09:07:40;94059.38;;;6.37;57.45
21588;BME280;10956;48.878;13.316;2023-04-07T09:10:07;94048.44;;;6.40;58.42
21588;BME280;10956;48.878;13.316;2023-04-07T09:12:33;94049.53;;;6.44;58.45
21588;BME280;10956;48.878;13.316;2023-04-07T09:15:00;94054.63;;;6.56;57.16
21588;BME280;10956;48.878;13.316;2023-04-07T09:17:26;94043.91;;;6.57;59.59
21588;BME280;10956;48.878;13.316;2023-04-07T09:19:56;94047.34;;;6.58;59.65
21588;BME280;10956;48.878;13.316;2023-04-07T09:22:42;94048.78;;;6.70;57.98
21588;BME280;10956;48.878;13.316;2023-04-07T09:28:12;94044.16;;;6.77;55.32
21588;BME280;10956;48.878;13.316;2023-04-07T09:30:51;94032.94;;;6.82;54.88
21588;BME280;10956;48.878;13.316;2023-04-07T09:33:28;94038.00;;;6.89;54.99
21588;BME280;10956;48.878;13.316;2023-04-07T09:35:54;94029.63;;;6.92;56.18
21588;BME280;10956;48.878;13.316;2023-04-07T09:38:20;94024.19;;;6.98;55.87
21588;BME280;10956;48.878;13.316;2023-04-07T09:40:46;94027.16;;;7.07;54.79
21588;BME280;10956;48.878;13.316;2023-04-07T09:43:17;94023.81;;;7.11;55.22
21588;BME280;10956;48.878;13.316;2023-04-07T09:45:43;94021.53;;;7.20;55.04
21588;BME280;10956;48.878;13.316;2023-04-07T09:48:19;94017.66;;;7.28;52.94
21588;BME280;10956;48.878;13.316;2023-04-07T09:50:45;94018.69;;;7.27;50.11
21588;BME280;10956;48.878;13.316;2023-04-07T09:53:16;94009.50;;;7.24;49.42
21588;BME280;10956;48.878;13.316;2023-04-07T09:55:43;94010.34;;;7.30;51.36
21588;BME280;10956;48.878;13.316;2023-04-07T09:58:12;93997.56;;;7.38;49.99
21588;BME280;10956;48.878;13.316;2023-04-07T10:00:40;94008.09;;;7.43;50.83
21588;BME280;10956;48.878;13.316;2023-04-07T10:03:06;94000.28;;;7.49;49.83
21588;BME280;10956;48.878;13.316;2023-04-07T10:05:33;93997.16;;;7.52;51.27
21588;BME280;10956;48.878;13.316;2023-04-07T10:08:01;94001.88;;;7.55;51.42
21588;BME280;10956;48.878;13.316;2023-04-07T10:10:27;94000.59;;;7.57;51.20
21588;BME280;10956;48.878;13.316;2023-04-07T10:12:55;93990.09;;;7.57;50.80
21588;BME280;10956;48.878;13.316;2023-04-07T10:15:22;93988.31;;;7.63;49.86
21588;BME280;10956;48.878;13.316;2023-04-07T10:17:48;93982.59;;;7.71;49.89
21588;BME280;10956;48.878;13.316;2023-04-07T10:20:17;93986.56;;;7.78;53.65
21588;BME280;10956;48.878;13.316;2023-04-07T10:22:45;93971.63;;;7.79;54.72
21588;BME280;10956;48.878;13.316;2023-04-07T10:25:13;93976.38;;;7.82;52.24
21588;BME280;10956;48.878;13.316;2023-04-07T10:27:53;93973.19;;;7.75;51.39
21588;BME280;10956;48.878;13.316;2023-04-07T10:30:39;93978.44;;;7.75;50.15
21588;BME280;10956;48.878;13.316;2023-04-07T10:33:05;93976.38;;;7.82;53.84
21588;BME280;10956;48.878;13.316;2023-04-07T10:36:22;93970.66;;;7.90;54.71
21588;BME280;10956;48.878;13.316;2023-04-07T10:38:41;93972.31;;;8.06;53.96
21588;BME280;10956;48.878;13.316;2023-04-07T10:41:35;93966.56;;;8.15;54.28
21588;BME280;10956;48.878;13.316;2023-04-07T10:44:09;93970.38;;;8.39;51.67
21588;BME280;10956;48.878;13.316;2023-04-07T10:49:18;93967.34;;;8.78;51.22
21588;BME280;10956;48.878;13.316;2023-04-07T10:54:36;93948.72;;;8.99;49.97
21588;BME280;10956;48.878;13.316;2023-04-07T10:59:30;93951.09;;;9.11;50.21
21588;BME280;10956;48.878;13.316;2023-04-07T11:04:42;93948.97;;;8.93;51.95
21588;BME280;10956;48.878;13.316;2023-04-07T11:07:08;93951.63;;;9.08;52.34
21588;BME280;10956;48.878;13.316;2023-04-07T11:09:33;93955.56;;;9.21;51.00
21588;BME280;10956;48.878;13.316;2023-04-07T11:11:58;93956.88;;;9.13;46.86
21588;BME280;10956;48.878;13.316;2023-04-07T11:14:28;93961.59;;;8.96;46.07
21588;BME280;10956;48.878;13.316;2023-04-07T11:16:54;93951.34;;;8.94;48.52
21588;BME280;10956;48.878;13.316;2023-04-07T11:19:20;93947.94;;;9.04;50.89
21588;BME280;10956;48.878;13.316;2023-04-07T11:21:46;93953.19;;;9.09;52.47
21588;BME280;10956;48.878;13.316;2023-04-07T11:24:34;93950.03;;;9.07;50.01
21588;BME280;10956;48.878;13.316;2023-04-07T11:27:02;93949.00;;;9.08;47.94
21588;BME280;10956;48.878;13.316;2023-04-07T11:29:28;93945.31;;;9.04;47.96
21588;BME280;10956;48.878;13.316;2023-04-07T11:31:57;93945.31;;;9.09;50.50
21588;BME280;10956;48.878;13.316;2023-04-07T11:34:28;93939.53;;;9.17;51.77
21588;BME280;10956;48.878;13.316;2023-04-07T11:36:54;93938.47;;;9.23;52.00
21588;BME280;10956;48.878;13.316;2023-04-07T11:39:24;93931.91;;;9.26;52.54
21588;BME280;10956;48.878;13.316;2023-04-07T11:41:55;93934.53;;;9.21;54.02
21588;BME280;10956;48.878;13.316;2023-04-07T11:44:20;93933.22;;;9.23;52.76
21588;BME280;10956;48.878;13.316;2023-04-07T11:46:56;93932.69;;;9.26;51.71
21588;BME280;10956;48.878;13.316;2023-04-07T11:49:22;93935.59;;;9.25;52.10
21588;BME280;10956;48.878;13.316;2023-04-07T11:52:05;93933.22;;;9.23;50.83
21588;BME280;10956;48.878;13.316;2023-04-07T11:54:45;93926.91;;;9.19;50.60
21588;BME280;10956;48.878;13.316;2023-04-07T11:57:11;93927.19;;;9.13;50.53
21588;BME280;10956;48.878;13.316;2023-04-07T11:59:38;93930.84;;;9.12;50.19
21588;BME280;10956;48.878;13.316;2023-04-07T12:02:03;93928.50;;;9.10;50.10
21588;BME280;10956;48.878;13.316;2023-04-07T12:04:29;93928.50;;;9.20;49.91
21588;BME280;10956;48.878;13.316;2023-04-07T12:07:06;93931.13;;;9.25;49.88
21588;BME280;10956;48.878;13.316;2023-04-07T12:09:33;93932.69;;;9.26;49.26
21588;BME280;10956;48.878;13.316;2023-04-07T12:12:01;93933.75;;;9.25;51.40
21588;BME280;10956;48.878;13.316;2023-04-07T12:14:28;93918.50;;;9.22;47.50
21588;BME280;10956;48.878;13.316;2023-04-07T12:16:54;93922.19;;;9.26;46.65
21588;BME280;10956;48.878;13.316;2023-04-07T12:19:27;93925.84;;;9.35;45.05
21588;BME280;10956;48.878;13.316;2023-04-07T12:21:54;93919.00;;;9.50;46.64
21588;BME280;10956;48.878;13.316;2023-04-07T12:24:20;93921.63;;;9.65;48.49
21588;BME280;10956;48.878;13.316;2023-04-07T12:26:46;93911.03;;;9.85;48.06
21588;BME280;10956;48.878;13.316;2023-04-07T12:29:12;93916.81;;;9.97;48.63
21588;BME280;10956;48.878;13.316;2023-04-07T12:31:37;93914.13;;;10.13;48.42
21588;BME280;10956;48.878;13.316;2023-04-07T12:34:03;93909.38;;;10.10;46.85
21588;BME280;10956;48.878;13.316;2023-04-07T12:36:28;93906.75;;;10.15;47.97
21588;BME280;10956;48.878;13.316;2023-04-07T12:38:55;93902.75;;;10.32;47.97
21588;BME280;10956;48.878;13.316;2023-04-07T12:41:21;93907.13;;;10.52;46.36
21588;BME280;10956;48.878;13.316;2023-04-07T12:43:46;93892.84;;;10.58;45.37
21588;BME280;10956;48.878;13.316;2023-04-07T12:46:12;93895.69;;;10.72;47.33
21588;BME280;10956;48.878;13.316;2023-04-07T12:48:37;93895.31;;;10.89;46.66
21588;BME280;10956;48.878;13.316;2023-04-07T12:51:03;93896.31;;;10.93;46.02
21588;BME280;10956;48.878;13.316;2023-04-07T12:53:28;93903.41;;;10.97;46.59
21588;BME280;10956;48.878;13.316;2023-04-07T12:55:54;93895.78;;;10.96;45.93
21588;BME280;10956;48.878;13.316;2023-04-07T12:58:20;93895.75;;;11.01;48.18
21588;BME280;10956;48.878;13.316;2023-04-07T13:00:45;93888.31;;;11.08;48.18
21588;BME280;10956;48.878;13.316;2023-04-07T13:03:11;93892.94;;;11.21;49.09
21588;BME280;10956;48.878;13.316;2023-04-07T13:05:37;93896.41;;;11.17;47.24
21588;BME280;10956;48.878;13.316;2023-04-07T13:08:03;93897.19;;;11.17;48.05
21588;BME280;10956;48.878;13.316;2023-04-07T13:10:29;93901.69;;;11.17;48.77
21588;BME280;10956;48.878;13.316;2023-04-07T13:12:54;93891.38;;;11.20;48.04
21588;BME280;10956;48.878;13.316;2023-04-07T13:15:20;93884.53;;;11.19;48.30